Airfield :
LOGIN :

Register | Disclaimer

   EN    FR    IT 

 










Legend :    VFR   Marginal VFR   IFR   Intensive IFR   Very Intensive IFR
Visi :
Ceiling :
>= 8 km
>= 3000ft
5 to 8 km
1000 to 3000 ft
1500m to 5 km
500 to 1000 ft
800 to 1500m
200 to 500 ft
< 800m
< 200 ft
Symbols :   Thunderstorms  Fog  Heavy snow  Heavy precipitations  Wind > 20 kt
SIGMETs :     Misc.  Thunderstorms  Icing  Turbulence  Mountain Waves  Volcanic Ashes






- Airport Elevation : 308 ft
- IATA code : MHG


EDFM - Mannheim-City

CURRENT METAR :
  • 070620Z 18004KT 130V210 9999 FEW041 OVC055 17/10 Q1021

EXPIRED METARs :
  • 070550Z 17004KT 9999 FEW042 OVC059 17/10 Q1021
  • 070520Z 16004KT 9999 OVC042 16/10 Q1021
  • 070450Z 14004KT 9999 FEW042 BKN049 BKN059 16/10 Q1021
  • 070350Z 13005KT CAVOK 15/10 Q1021

TAF TAF EDFM
Valid from the 07 at 06:00 until the 07 at 15:00 UTC


070500Z 0706/0715 18005KT 9999 FEW030 BKN040
BECMG 0707/0710 30012KT
PROB30
TEMPO 0709/0714 SHRA BKN030CB



MET'MAP, your aeronautical weather chart ! - Copyright ORBIFLY December 2007 - Disclaimer

ORBIFLY MET'MAP TEAM :

Programming & Development : Alexandra Zaïnal
Original concept : Baudouin d'Aumeries
Technical & hardware support : Manuel Goepfert
Assistance : Marc-Olivier Méhu




SOURCES & CREDITS :

   NOAA